createdAt,value
2023-10-20T00:01:41.098Z,14.80
2023-10-20T00:04:07.877Z,14.90
2023-10-20T00:06:34.636Z,14.90
2023-10-20T00:09:01.350Z,15.00
2023-10-20T00:11:28.124Z,14.90
2023-10-20T00:13:54.924Z,14.90
2023-10-20T00:16:26.431Z,14.90
2023-10-20T00:18:53.413Z,14.70
2023-10-20T00:21:20.402Z,15.00
2023-10-20T00:23:47.282Z,14.90
2023-10-20T00:26:14.650Z,14.70
2023-10-20T00:28:41.524Z,14.80
2023-10-20T00:31:08.322Z,14.90
2023-10-20T00:33:36.007Z,15.10
2023-10-20T00:36:02.775Z,14.90
2023-10-20T00:38:29.563Z,14.90
2023-10-20T00:40:56.518Z,14.90
2023-10-20T00:43:33.404Z,14.90
2023-10-20T00:46:00.546Z,16.10
2023-10-20T00:48:27.663Z,14.90
2023-10-20T00:50:54.901Z,15.00
2023-10-20T00:53:23.577Z,15.00
2023-10-20T00:55:51.330Z,15.00
2023-10-20T00:58:18.560Z,15.00
2023-10-20T01:00:45.343Z,15.00
2023-10-20T01:03:12.339Z,15.20
2023-10-20T01:05:39.709Z,15.00
2023-10-20T01:08:06.948Z,15.00
2023-10-20T01:10:33.810Z,15.00
2023-10-20T01:13:00.506Z,15.30
2023-10-20T01:15:28.296Z,15.00
2023-10-20T01:17:55.777Z,15.00
2023-10-20T01:20:24.266Z,15.00
2023-10-20T01:22:51.136Z,15.00
2023-10-20T01:25:18.131Z,15.00
2023-10-20T01:27:45.062Z,15.00
2023-10-20T01:30:12.204Z,15.30
2023-10-20T01:32:40.640Z,15.00
2023-10-20T01:35:07.914Z,15.00
2023-10-20T01:37:34.773Z,15.10
2023-10-20T01:40:01.474Z,15.10
2023-10-20T01:42:28.164Z,15.00
2023-10-20T01:44:54.853Z,15.10
2023-10-20T01:47:21.671Z,15.10
2023-10-20T01:49:48.379Z,15.00
2023-10-20T01:52:15.150Z,15.00
2023-10-20T01:54:41.837Z,15.10
2023-10-20T01:57:10.147Z,15.30
2023-10-20T01:59:36.870Z,15.10
2023-10-20T02:02:05.312Z,15.20
2023-10-20T02:04:32.852Z,15.10
2023-10-20T02:06:59.726Z,15.10
2023-10-20T02:09:27.039Z,15.10
2023-10-20T02:11:58.136Z,15.10
2023-10-20T02:14:25.416Z,15.10
2023-10-20T02:16:53.269Z,15.10
2023-10-20T02:19:20.043Z,15.10
2023-10-20T02:21:48.453Z,15.10
2023-10-20T02:24:15.376Z,15.10
2023-10-20T02:26:42.128Z,15.10
2023-10-20T02:29:08.828Z,15.10
2023-10-20T02:31:35.601Z,15.10
2023-10-20T02:34:02.387Z,15.00
2023-10-20T02:36:29.149Z,15.00
2023-10-20T02:38:56.343Z,15.00
2023-10-20T02:41:23.191Z,15.00
2023-10-20T02:43:50.161Z,15.10
2023-10-20T02:46:17.738Z,15.00
2023-10-20T02:48:44.568Z,15.10
2023-10-20T02:51:12.144Z,15.10
2023-10-20T02:53:42.263Z,15.10
2023-10-20T02:56:20.072Z,15.10
2023-10-20T02:58:48.369Z,15.10
2023-10-20T03:01:17.761Z,15.30
2023-10-20T03:03:45.424Z,15.10
2023-10-20T03:06:12.882Z,15.20
2023-10-20T03:08:40.674Z,15.20
2023-10-20T03:11:09.216Z,15.20
2023-10-20T03:13:36.160Z,15.20
2023-10-20T03:16:02.926Z,15.20
2023-10-20T03:18:29.875Z,15.20
2023-10-20T03:21:02.041Z,15.20
2023-10-20T03:23:29.070Z,15.20
2023-10-20T03:25:56.050Z,15.20
2023-10-20T03:28:22.818Z,15.20
2023-10-20T03:30:52.080Z,15.20
2023-10-20T03:33:19.189Z,15.20
2023-10-20T03:35:47.001Z,16.80
2023-10-20T03:38:13.866Z,15.20
2023-10-20T03:40:47.230Z,15.20
2023-10-20T03:43:14.070Z,15.20
2023-10-20T03:45:52.996Z,15.20
2023-10-20T03:48:24.644Z,15.10
2023-10-20T03:50:53.124Z,15.20
2023-10-20T03:53:23.529Z,15.20
2023-10-20T03:56:08.130Z,15.60
2023-10-20T03:58:37.368Z,15.20
2023-10-20T04:01:04.732Z,15.20
2023-10-20T04:03:31.651Z,15.20
2023-10-20T04:05:59.175Z,15.20
2023-10-20T04:08:26.325Z,15.20
2023-10-20T04:11:00.248Z,15.20
2023-10-20T04:13:29.507Z,15.20
2023-10-20T04:15:56.985Z,15.20
2023-10-20T04:18:23.945Z,15.20
2023-10-20T04:20:51.354Z,15.20
2023-10-20T04:23:18.808Z,15.20
2023-10-20T04:25:56.042Z,15.20
2023-10-20T04:28:33.906Z,15.20
2023-10-20T04:31:19.346Z,15.20
2023-10-20T04:34:04.905Z,15.20
2023-10-20T04:36:50.352Z,15.20
2023-10-20T04:39:35.846Z,15.20
2023-10-20T04:42:02.554Z,15.10
2023-10-20T04:44:47.824Z,15.10
2023-10-20T04:47:17.558Z,15.20
2023-10-20T04:49:50.561Z,15.10
2023-10-20T04:52:20.572Z,15.10
2023-10-20T04:55:00.136Z,15.10
2023-10-20T04:57:36.267Z,15.10
2023-10-20T05:00:12.004Z,15.10
2023-10-20T05:02:52.062Z,15.10
2023-10-20T05:05:26.422Z,15.10
2023-10-20T05:08:06.004Z,15.10
2023-10-20T05:10:33.850Z,15.10
2023-10-20T05:13:00.706Z,15.20
2023-10-20T05:15:29.987Z,15.00
2023-10-20T05:17:57.043Z,15.30
2023-10-20T05:20:25.121Z,15.00
2023-10-20T05:22:51.979Z,15.00
2023-10-20T05:25:18.732Z,15.00
2023-10-20T05:27:46.187Z,15.10
2023-10-20T05:30:13.022Z,15.00
2023-10-20T05:32:39.808Z,14.90
2023-10-20T05:35:10.192Z,14.90
2023-10-20T05:37:37.272Z,14.90
2023-10-20T05:40:04.914Z,15.50
2023-10-20T05:42:32.712Z,15.00
2023-10-20T05:45:11.598Z,14.90
2023-10-20T05:47:41.518Z,14.90
2023-10-20T05:50:08.927Z,14.90
2023-10-20T05:52:37.088Z,14.90
2023-10-20T05:55:04.694Z,15.00
2023-10-20T05:57:31.596Z,14.90
2023-10-20T06:00:01.201Z,14.90
2023-10-20T06:02:29.245Z,14.90
2023-10-20T06:04:56.186Z,14.90
2023-10-20T06:07:23.116Z,14.90
2023-10-20T06:09:50.839Z,14.90
2023-10-20T06:12:18.019Z,14.90
2023-10-20T06:14:45.077Z,14.80
2023-10-20T06:17:12.178Z,14.90
2023-10-20T06:19:38.997Z,14.90
2023-10-20T06:22:06.699Z,14.80
2023-10-20T06:24:34.413Z,14.80
2023-10-20T06:27:03.956Z,14.80
2023-10-20T06:29:34.497Z,14.80
2023-10-20T06:32:21.033Z,14.70
2023-10-20T06:34:48.904Z,14.80
2023-10-20T06:37:26.234Z,14.80
2023-10-20T06:39:53.025Z,14.80
2023-10-20T06:42:21.709Z,14.80
2023-10-20T06:44:50.329Z,14.60
2023-10-20T06:47:18.001Z,14.80
2023-10-20T06:49:45.786Z,14.80
2023-10-20T06:52:17.985Z,14.70
2023-10-20T06:55:02.583Z,14.80
2023-10-20T06:57:33.087Z,14.80
2023-10-20T06:59:59.864Z,14.80
2023-10-20T07:02:26.846Z,14.70
2023-10-20T07:04:53.624Z,14.70
2023-10-20T07:07:20.323Z,14.80
2023-10-20T07:09:47.113Z,14.80
2023-10-20T07:12:16.061Z,14.80
2023-10-20T07:14:45.935Z,14.80
2023-10-20T07:17:13.712Z,14.80
2023-10-20T07:19:40.596Z,14.80
2023-10-20T07:22:07.402Z,14.80
2023-10-20T07:24:34.980Z,14.80
2023-10-20T07:27:03.180Z,14.80
2023-10-20T07:29:30.282Z,14.80
2023-10-20T07:31:57.251Z,14.80
2023-10-20T07:34:24.149Z,14.80
2023-10-20T07:36:50.934Z,14.80
2023-10-20T07:39:17.647Z,15.70
2023-10-20T07:41:45.526Z,14.80
2023-10-20T07:44:19.278Z,14.80
2023-10-20T07:46:46.193Z,14.80
2023-10-20T07:49:12.940Z,14.90
2023-10-20T07:51:40.639Z,14.90
2023-10-20T07:54:09.627Z,14.90
2023-10-20T07:56:36.920Z,15.00
2023-10-20T07:59:05.102Z,14.90
2023-10-20T08:01:32.031Z,14.90
2023-10-20T08:03:59.060Z,14.80
2023-10-20T08:06:26.590Z,15.10
2023-10-20T08:08:53.672Z,15.10
2023-10-20T08:11:20.628Z,15.20
2023-10-20T08:13:53.594Z,15.30
2023-10-20T08:16:23.540Z,15.30
2023-10-20T08:18:52.186Z,15.30
2023-10-20T08:21:20.392Z,15.30
2023-10-20T08:23:47.452Z,15.30
2023-10-20T08:26:20.698Z,15.30
2023-10-20T08:28:50.051Z,15.30
2023-10-20T08:31:18.747Z,15.30
2023-10-20T08:33:45.938Z,15.40
2023-10-20T08:36:14.433Z,15.20
2023-10-20T08:38:42.621Z,15.30
2023-10-20T08:41:14.890Z,15.20
2023-10-20T08:43:43.210Z,15.30
2023-10-20T08:46:20.243Z,15.30
2023-10-20T08:48:48.563Z,15.30
2023-10-20T08:51:18.488Z,15.30
2023-10-20T08:53:47.085Z,15.30
2023-10-20T08:56:14.592Z,15.30
2023-10-20T08:58:41.774Z,15.30
2023-10-20T09:01:09.117Z,15.30
2023-10-20T09:03:46.506Z,15.20
2023-10-20T09:06:17.800Z,15.30
2023-10-20T09:08:48.666Z,15.20
2023-10-20T09:11:15.658Z,15.30
2023-10-20T09:13:44.287Z,15.30
2023-10-20T09:16:15.326Z,15.20
2023-10-20T09:19:00.541Z,15.40
2023-10-20T09:21:30.932Z,15.30
2023-10-20T09:24:02.836Z,15.40
2023-10-20T09:26:34.305Z,15.40
2023-10-20T09:29:01.215Z,15.40
2023-10-20T09:31:29.188Z,15.40
2023-10-20T09:33:56.321Z,15.40
2023-10-20T09:36:24.356Z,15.50
2023-10-20T09:38:53.707Z,15.40
2023-10-20T09:41:30.211Z,15.50
2023-10-20T09:44:07.663Z,15.60
2023-10-20T09:46:34.906Z,15.60
2023-10-20T09:49:06.199Z,15.60
2023-10-20T09:51:33.984Z,15.60
2023-10-20T09:54:01.667Z,15.60
2023-10-20T09:56:28.913Z,15.60
2023-10-20T09:59:03.456Z,15.60
2023-10-20T10:01:32.018Z,15.60
2023-10-20T10:04:04.680Z,15.50
2023-10-20T10:06:38.903Z,15.50
2023-10-20T10:09:06.814Z,15.50
2023-10-20T10:11:41.042Z,15.50
2023-10-20T10:14:08.863Z,15.60
2023-10-20T10:16:49.920Z,15.50
2023-10-20T10:19:18.382Z,15.60
2023-10-20T10:21:50.905Z,15.60
2023-10-20T10:24:26.264Z,15.70
2023-10-20T10:27:02.281Z,15.80
2023-10-20T10:30:06.964Z,15.80
2023-10-20T10:32:46.493Z,15.80
2023-10-20T10:35:17.923Z,15.80
2023-10-20T10:37:45.211Z,15.90
2023-10-20T10:40:15.292Z,16.00
2023-10-20T10:42:50.530Z,16.20
2023-10-20T10:45:25.313Z,16.40
2023-10-20T10:48:04.054Z,16.30
2023-10-20T10:50:31.509Z,16.30
2023-10-20T10:52:58.417Z,16.40
2023-10-20T10:55:25.988Z,16.40
2023-10-20T10:57:53.241Z,16.40
2023-10-20T11:00:20.577Z,16.30
2023-10-20T11:02:47.883Z,16.20
2023-10-20T11:05:16.716Z,16.10
2023-10-20T11:07:57.037Z,16.00
2023-10-20T11:10:28.314Z,15.90
2023-10-20T11:12:58.837Z,15.70
2023-10-20T11:15:31.911Z,15.80
2023-10-20T11:18:02.967Z,15.80
2023-10-20T11:20:34.325Z,15.70
2023-10-20T11:23:02.102Z,15.70
2023-10-20T11:25:30.332Z,15.70
2023-10-20T11:27:58.152Z,15.80
2023-10-20T11:30:29.332Z,15.80
2023-10-20T11:32:56.789Z,15.90
2023-10-20T11:35:27.946Z,15.80
2023-10-20T11:37:56.515Z,15.80
2023-10-20T11:40:24.049Z,15.80
2023-10-20T11:42:51.810Z,15.70
2023-10-20T11:45:18.921Z,15.80
2023-10-20T11:47:46.340Z,15.80
2023-10-20T11:50:13.422Z,15.90
2023-10-20T11:52:41.249Z,16.00
2023-10-20T11:55:10.131Z,16.00
2023-10-20T11:57:37.776Z,16.00
2023-10-20T12:00:11.480Z,16.00
2023-10-20T12:02:39.692Z,16.00
2023-10-20T12:05:07.893Z,15.90
2023-10-20T12:07:35.251Z,15.90
2023-10-20T12:10:02.107Z,15.90
2023-10-20T12:12:29.744Z,15.90
2023-10-20T12:14:56.468Z,16.10
2023-10-20T12:17:24.922Z,16.20
2023-10-20T12:19:51.838Z,16.30
2023-10-20T12:22:18.930Z,16.30
2023-10-20T12:24:45.633Z,16.40
2023-10-20T12:27:14.371Z,16.40
2023-10-20T12:29:41.610Z,16.40
2023-10-20T12:32:13.643Z,16.30
2023-10-20T12:34:41.499Z,16.30
2023-10-20T12:37:08.929Z,16.30
2023-10-20T12:39:35.889Z,16.40
2023-10-20T12:42:06.276Z,16.40
2023-10-20T12:44:35.217Z,16.40
2023-10-20T12:47:02.339Z,16.40
2023-10-20T12:49:29.103Z,16.40
2023-10-20T12:51:56.372Z,16.40
2023-10-20T12:54:24.398Z,16.40
2023-10-20T12:56:51.260Z,16.40
2023-10-20T12:59:18.197Z,16.30
2023-10-20T13:01:45.198Z,16.20
2023-10-20T13:04:12.455Z,16.30
2023-10-20T13:06:53.680Z,16.10
2023-10-20T13:09:25.536Z,16.10
2023-10-20T13:11:52.572Z,16.10
2023-10-20T13:14:19.379Z,16.20
2023-10-20T13:16:46.147Z,16.30
2023-10-20T13:19:15.012Z,16.40
2023-10-20T13:21:43.082Z,16.40
2023-10-20T13:24:10.226Z,16.40
2023-10-20T13:26:37.818Z,16.40
2023-10-20T13:29:05.718Z,16.40
2023-10-20T13:31:34.782Z,16.50
2023-10-20T13:34:03.164Z,16.60
2023-10-20T13:36:29.894Z,16.60
2023-10-20T13:38:56.723Z,16.50
2023-10-20T13:41:24.718Z,16.50
2023-10-20T13:43:52.565Z,16.40
2023-10-20T13:46:19.475Z,16.30
2023-10-20T13:48:46.610Z,16.60
2023-10-20T13:51:13.341Z,16.40
2023-10-20T13:53:40.075Z,16.40
2023-10-20T13:56:06.981Z,16.30
2023-10-20T13:58:33.777Z,16.30
2023-10-20T14:01:00.510Z,16.40
2023-10-20T14:03:27.625Z,16.50
2023-10-20T14:05:57.808Z,16.50
2023-10-20T14:08:25.031Z,16.40
2023-10-20T14:10:51.976Z,16.40
2023-10-20T14:13:19.001Z,16.30
2023-10-20T14:15:46.022Z,16.30
2023-10-20T14:18:13.388Z,16.30
2023-10-20T14:20:40.832Z,16.30
2023-10-20T14:23:08.918Z,16.30
2023-10-20T14:25:36.705Z,16.30
2023-10-20T14:28:07.038Z,16.30
2023-10-20T14:30:34.556Z,16.30
2023-10-20T14:33:01.900Z,16.20
2023-10-20T14:35:29.206Z,16.20
2023-10-20T14:37:57.381Z,16.20
2023-10-20T14:40:24.095Z,16.10
2023-10-20T14:42:50.850Z,16.00
2023-10-20T14:45:17.556Z,15.90
2023-10-20T14:47:44.317Z,15.90
2023-10-20T14:50:11.918Z,15.80
2023-10-20T14:52:41.103Z,15.80
2023-10-20T14:55:10.371Z,15.70
2023-10-20T14:57:37.508Z,15.70
2023-10-20T15:00:10.693Z,15.70
2023-10-20T15:02:39.532Z,15.60
2023-10-20T15:05:07.294Z,15.60
2023-10-20T15:07:34.756Z,15.50
2023-10-20T15:10:01.580Z,15.40
2023-10-20T15:12:28.661Z,15.50
2023-10-20T15:14:55.601Z,15.40
2023-10-20T15:17:22.398Z,15.40
2023-10-20T15:19:49.177Z,15.40
2023-10-20T15:22:15.945Z,15.30
2023-10-20T15:24:42.742Z,15.30
2023-10-20T15:27:09.447Z,15.40
2023-10-20T15:29:36.412Z,15.40
2023-10-20T15:32:03.402Z,15.40
2023-10-20T15:34:30.174Z,15.40
2023-10-20T15:36:57.001Z,15.40
2023-10-20T15:39:36.084Z,15.40
2023-10-20T15:42:07.236Z,15.40
2023-10-20T15:44:33.999Z,15.40
2023-10-20T15:47:00.913Z,15.30
2023-10-20T15:49:28.073Z,15.30
2023-10-20T15:51:54.852Z,15.40
2023-10-20T15:54:21.592Z,15.30
2023-10-20T15:56:52.191Z,15.30
2023-10-20T15:59:19.424Z,15.30
2023-10-20T16:01:47.150Z,15.20
2023-10-20T16:04:14.361Z,15.20
2023-10-20T16:06:42.732Z,15.20
2023-10-20T16:09:09.708Z,15.20
2023-10-20T16:11:37.363Z,15.10
2023-10-20T16:14:04.319Z,15.10
2023-10-20T16:16:32.269Z,15.10
2023-10-20T16:18:59.162Z,15.00
2023-10-20T16:21:26.025Z,15.00
2023-10-20T16:23:52.797Z,15.00
2023-10-20T16:26:19.583Z,15.00
2023-10-20T16:28:46.372Z,15.10
2023-10-20T16:31:13.242Z,15.10
2023-10-20T16:33:40.160Z,15.10
2023-10-20T16:36:07.388Z,15.10
2023-10-20T16:38:34.239Z,15.00
2023-10-20T16:41:01.671Z,14.90
2023-10-20T16:43:28.860Z,15.00
2023-10-20T16:45:55.797Z,15.00
2023-10-20T16:48:22.718Z,14.90
2023-10-20T16:50:57.839Z,14.80
2023-10-20T16:53:24.722Z,14.80
2023-10-20T16:55:51.450Z,14.70
2023-10-20T16:58:19.964Z,14.60
2023-10-20T17:00:48.187Z,14.60
2023-10-20T17:03:15.163Z,14.60
2023-10-20T17:05:43.815Z,14.60
2023-10-20T17:08:10.621Z,14.60
2023-10-20T17:10:40.851Z,14.50
2023-10-20T17:13:07.784Z,14.40
2023-10-20T17:15:34.647Z,14.50
2023-10-20T17:18:01.443Z,14.40
2023-10-20T17:20:28.384Z,14.40
2023-10-20T17:22:55.513Z,14.40
2023-10-20T17:25:22.320Z,14.30
2023-10-20T17:27:49.206Z,14.20
2023-10-20T17:30:16.092Z,14.10
2023-10-20T17:32:44.686Z,14.10
2023-10-20T17:35:12.253Z,14.00
2023-10-20T17:37:41.440Z,13.90
2023-10-20T17:40:12.958Z,13.80
2023-10-20T17:42:39.746Z,13.80
2023-10-20T17:45:07.324Z,13.70
2023-10-20T17:47:34.333Z,13.80
2023-10-20T17:50:01.123Z,13.80
2023-10-20T17:52:27.837Z,13.70
2023-10-20T17:54:54.629Z,13.60
2023-10-20T17:57:23.289Z,13.70
2023-10-20T17:59:50.080Z,13.60
2023-10-20T18:02:16.948Z,13.60
2023-10-20T18:04:43.748Z,13.60
2023-10-20T18:07:10.607Z,13.60
2023-10-20T18:09:37.500Z,13.50
2023-10-20T18:12:04.480Z,13.60
2023-10-20T18:14:31.550Z,13.50
2023-10-20T18:16:58.423Z,13.40
2023-10-20T18:19:25.155Z,13.50
2023-10-20T18:21:51.913Z,13.50
2023-10-20T18:24:18.602Z,13.50
2023-10-20T18:26:47.110Z,13.40
2023-10-20T18:29:13.915Z,13.50
2023-10-20T18:31:40.691Z,13.40
2023-10-20T18:34:08.128Z,13.40
2023-10-20T18:36:34.922Z,13.40
2023-10-20T18:39:01.827Z,13.40
2023-10-20T18:41:28.739Z,13.30
2023-10-20T18:43:55.471Z,13.20
2023-10-20T18:46:24.942Z,13.00
2023-10-20T18:48:51.868Z,13.30
2023-10-20T18:51:18.717Z,13.20
2023-10-20T18:53:45.606Z,13.20
2023-10-20T18:56:12.945Z,13.10
2023-10-20T18:58:39.831Z,13.10
2023-10-20T19:01:08.002Z,13.10
2023-10-20T19:03:35.251Z,13.10
2023-10-20T19:06:09.648Z,13.10
2023-10-20T19:08:38.453Z,13.10
2023-10-20T19:11:06.089Z,13.10
2023-10-20T19:13:34.907Z,12.90
2023-10-20T19:16:02.142Z,12.90
2023-10-20T19:18:28.987Z,13.10
2023-10-20T19:20:59.864Z,13.10
2023-10-20T19:23:26.809Z,13.00
2023-10-20T19:26:09.003Z,12.90
2023-10-20T19:28:35.935Z,12.80
2023-10-20T19:31:04.685Z,12.80
2023-10-20T19:33:32.661Z,12.90
2023-10-20T19:36:04.152Z,12.80
2023-10-20T19:38:31.686Z,12.80
2023-10-20T19:40:58.912Z,12.70
2023-10-20T19:43:27.152Z,12.60
2023-10-20T19:45:54.143Z,12.60
2023-10-20T19:48:21.113Z,12.60
2023-10-20T19:50:48.064Z,12.50
2023-10-20T19:53:14.828Z,12.50
2023-10-20T19:55:43.810Z,12.50
2023-10-20T19:58:10.663Z,12.50
2023-10-20T20:00:37.561Z,12.50
2023-10-20T20:03:04.794Z,12.30
2023-10-20T20:05:31.729Z,12.50
2023-10-20T20:07:58.606Z,12.40
2023-10-20T20:10:25.390Z,12.40
2023-10-20T20:12:52.099Z,11.90
2023-10-20T20:15:19.136Z,12.30
2023-10-20T20:17:46.123Z,12.30
2023-10-20T20:20:13.338Z,12.30
2023-10-20T20:22:40.081Z,12.40
2023-10-20T20:25:07.211Z,12.30
2023-10-20T20:27:34.015Z,12.30
2023-10-20T20:30:00.827Z,12.30
2023-10-20T20:32:27.625Z,12.30
2023-10-20T20:34:54.433Z,12.30
2023-10-20T20:37:21.505Z,12.30
2023-10-20T20:39:48.286Z,12.20
2023-10-20T20:42:15.102Z,12.20
2023-10-20T20:44:42.178Z,12.20
2023-10-20T20:47:09.533Z,11.80
2023-10-20T20:49:36.670Z,12.20
2023-10-20T20:54:33.603Z,12.10
2023-10-20T20:57:00.749Z,12.10
2023-10-20T20:59:27.594Z,12.50
2023-10-20T21:01:55.120Z,12.10
2023-10-20T21:04:21.983Z,11.90
2023-10-20T21:06:48.821Z,12.10
2023-10-20T21:09:15.746Z,10.10
2023-10-20T21:11:43.085Z,12.00
2023-10-20T21:14:09.952Z,12.00
2023-10-20T21:16:36.696Z,12.00
2023-10-20T21:19:04.839Z,11.90
2023-10-20T21:21:31.638Z,12.00
2023-10-20T21:23:58.771Z,12.00
2023-10-20T21:26:25.532Z,12.00
2023-10-20T21:28:52.853Z,12.00
2023-10-20T21:31:19.950Z,12.00
2023-10-20T21:33:47.336Z,11.90
2023-10-20T21:36:16.203Z,11.90
2023-10-20T21:38:43.249Z,11.90
2023-10-20T21:41:10.090Z,11.90
2023-10-20T21:43:36.849Z,11.90
2023-10-20T21:46:04.932Z,11.80
2023-10-20T21:48:31.961Z,11.80
2023-10-20T21:51:00.777Z,11.80
2023-10-20T21:53:29.829Z,11.80
2023-10-20T21:56:11.532Z,11.80
2023-10-20T21:58:38.781Z,11.70
2023-10-20T22:01:13.253Z,11.80
2023-10-20T22:03:40.857Z,11.80
2023-10-20T22:06:08.772Z,11.80
2023-10-20T22:08:35.841Z,11.90
2023-10-20T22:11:02.590Z,11.90
2023-10-20T22:13:29.436Z,11.90
2023-10-20T22:15:56.908Z,12.00
2023-10-20T22:18:23.690Z,11.90
2023-10-20T22:20:50.596Z,12.00
2023-10-20T22:23:19.397Z,12.00
2023-10-20T22:25:46.189Z,11.90
2023-10-20T22:28:12.895Z,11.90
2023-10-20T22:30:39.688Z,11.80
2023-10-20T22:33:06.806Z,11.70
2023-10-20T22:35:33.612Z,11.90
2023-10-20T22:38:00.434Z,11.70
2023-10-20T22:40:27.551Z,11.90
2023-10-20T22:42:54.524Z,11.90
2023-10-20T22:45:21.307Z,11.90
2023-10-20T22:47:48.119Z,12.00
2023-10-20T22:50:19.231Z,12.10
2023-10-20T22:52:47.879Z,12.20
2023-10-20T22:55:14.990Z,12.40
2023-10-20T22:57:41.753Z,12.30
2023-10-20T23:00:10.859Z,12.40
2023-10-20T23:02:39.458Z,12.50
2023-10-20T23:05:07.927Z,12.20
2023-10-20T23:07:35.036Z,12.40
2023-10-20T23:10:04.391Z,12.50
2023-10-20T23:12:32.700Z,12.50
2023-10-20T23:14:59.932Z,12.50
2023-10-20T23:17:27.275Z,12.50
2023-10-20T23:19:55.378Z,12.50
2023-10-20T23:22:22.134Z,12.50
2023-10-20T23:24:48.896Z,12.50
2023-10-20T23:27:15.691Z,12.90
2023-10-20T23:29:42.552Z,12.70
2023-10-20T23:32:09.933Z,12.60
2023-10-20T23:34:36.891Z,12.70
2023-10-20T23:37:04.506Z,12.70
2023-10-20T23:39:33.876Z,12.80
2023-10-20T23:42:02.240Z,12.80
2023-10-20T23:44:30.845Z,12.80
2023-10-20T23:46:57.610Z,12.80
2023-10-20T23:49:24.354Z,12.80
2023-10-20T23:51:51.924Z,12.80
2023-10-20T23:54:18.803Z,12.60
2023-10-20T23:56:45.658Z,13.10
2023-10-20T23:59:12.431Z,12.90
